Time;durP1;ratioP1;P1;durP2;ratioP2;P2;SDS_P1;SDS_P2;PMS_P1;PMS_P2;Temp;Humidity;BMP_temperature;BMP_pressure;BME280_temperature;BME280_humidity;BME280_pressure;Samples;Min_cycle;Max_cycle;Signal;HPM_P1;HPM_P2
2021/12/25 00:01:47;;;;;;;1.42;1.33;;;;;;;-14.92;78.10;97189.28;4921401;29;20079;-82
2021/12/25 00:04:18;;;;;;;1.13;1.13;;;;;;;-14.89;78.43;97163.94;4914996;29;20059;-80
2021/12/25 00:06:48;;;;;;;1.40;1.30;;;;;;;-14.87;78.57;97182.75;4922275;29;20044;-81
2021/12/25 00:09:15;;;;;;;1.20;1.15;;;;;;;-14.87;78.50;97158.63;4920502;29;20051;-81
2021/12/25 00:11:45;;;;;;;1.27;1.20;;;;;;;-14.83;78.56;97164.34;4919109;29;20055;-79
2021/12/25 00:14:13;;;;;;;1.40;1.30;;;;;;;-14.85;79.20;97143.78;4921064;29;20071;-81
2021/12/25 00:16:43;;;;;;;1.33;1.23;;;;;;;-14.87;79.49;97149.09;4915181;29;20609;-81
2021/12/25 00:19:10;;;;;;;1.42;1.33;;;;;;;-14.83;79.42;97131.53;4930798;29;20170;-81
2021/12/25 00:21:38;;;;;;;1.13;1.13;;;;;;;-14.97;79.82;97108.59;4933043;29;20422;-82
2021/12/25 00:24:05;;;;;;;1.17;1.17;;;;;;;-14.80;79.76;97117.50;4934331;29;20043;-81
2021/12/25 00:27:06;;;;;;;1.33;1.23;;;;;;;-14.74;80.02;97098.84;4929120;29;20055;-82
2021/12/25 00:34:38;;;;;;;1.50;1.40;;;;;;;-14.69;79.87;97088.91;4900080;29;20504;-81
2021/12/25 00:37:06;;;;;;;1.15;1.15;;;;;;;-14.68;80.06;97087.97;4917359;29;20138;-81
2021/12/25 00:39:34;;;;;;;1.40;1.30;;;;;;;-14.61;80.12;97072.69;4932876;29;20056;-81
2021/12/25 00:42:02;;;;;;;1.30;1.20;;;;;;;-14.55;80.08;97056.63;4936587;29;20401;-82
2021/12/25 00:44:29;;;;;;;1.30;1.20;;;;;;;-14.59;79.81;97061.25;4936116;29;20530;-82
2021/12/25 00:46:57;;;;;;;1.50;1.40;;;;;;;-14.57;79.82;97041.22;4921363;29;20100;-81
2021/12/25 00:49:25;;;;;;;1.42;1.33;;;;;;;-14.55;80.18;97041.91;4917104;29;20055;-82
2021/12/25 00:51:52;;;;;;;1.42;1.33;;;;;;;-14.55;80.14;97030.72;4917200;29;20056;-81
2021/12/25 00:54:20;;;;;;;1.30;1.20;;;;;;;-14.54;80.12;97021.97;4917112;29;20079;-82
2021/12/25 00:56:47;;;;;;;1.35;1.25;;;;;;;-14.52;80.15;97026.03;4917033;29;20056;-79
2021/12/25 00:59:16;;;;;;;1.10;1.10;;;;;;;-14.50;79.60;97006.00;4916914;29;20044;-81
2021/12/25 01:01:46;;;;;;;1.13;1.13;;;;;;;-14.52;79.68;97015.69;4905436;29;20055;-81
2021/12/25 01:04:13;;;;;;;1.38;1.27;;;;;;;-14.54;79.75;97011.63;4941201;29;20058;-81
2021/12/25 01:06:41;;;;;;;1.27;1.17;;;;;;;-14.50;79.87;97006.00;4919004;29;20176;-81
2021/12/25 01:09:10;;;;;;;1.42;1.33;;;;;;;-14.50;79.68;96985.28;4920490;29;20055;-82
2021/12/25 01:11:38;;;;;;;1.40;1.30;;;;;;;-14.48;79.66;96987.72;4943199;29;20063;-82
2021/12/25 01:14:14;;;;;;;1.40;1.30;;;;;;;-14.43;79.80;96978.59;4943324;29;20108;-81
2021/12/25 01:28:12;;;;;;;1.50;1.40;;;;;;;-14.40;79.74;96961.97;4936739;29;20471;-81
2021/12/25 01:30:51;;;;;;;1.40;1.30;;;;;;;-14.37;79.66;96953.09;4918523;29;20062;-81
2021/12/25 01:48:17;;;;;;;1.50;1.40;;;;;;;-14.29;79.93;96916.94;4917849;29;20063;-81
2021/12/25 01:50:44;;;;;;;1.10;1.10;;;;;;;-14.25;80.26;96913.91;4917705;29;20048;-82
2021/12/25 01:53:11;;;;;;;1.35;1.25;;;;;;;-14.22;80.08;96912.81;4917536;29;20056;-81
2021/12/25 01:55:39;;;;;;;1.40;1.30;;;;;;;-14.17;80.08;96895.06;4917961;29;20138;-82
2021/12/25 01:58:08;;;;;;;1.08;1.08;;;;;;;-14.15;80.13;96903.53;4918036;29;20107;-81
2021/12/25 02:00:45;;;;;;;1.38;1.27;;;;;;;-14.13;80.28;96901.59;4917497;29;20581;-83
2021/12/25 02:03:14;;;;;;;1.42;1.33;;;;;;;-14.10;80.24;96896.13;4917398;29;20070;-81
2021/12/25 02:05:41;;;;;;;1.42;1.33;;;;;;;-14.09;80.58;96894.34;4917500;29;20560;-80
2021/12/25 02:08:23;;;;;;;1.30;1.20;;;;;;;-14.08;80.40;96881.22;4917537;29;20416;-81
2021/12/25 02:10:53;;;;;;;1.50;1.40;;;;;;;-14.04;80.50;96885.19;4917192;29;20089;-81
2021/12/25 02:13:22;;;;;;;1.45;1.35;;;;;;;-14.03;80.51;96855.69;4902101;29;20098;-81
2021/12/25 02:15:52;;;;;;;1.40;1.30;;;;;;;-14.01;80.33;96866.75;4917398;29;20047;-80
2021/12/25 02:21:25;;;;;;;1.40;1.30;;;;;;;-13.91;80.20;96845.16;4921427;29;20511;-81
2021/12/25 02:23:54;;;;;;;1.48;1.38;;;;;;;-13.89;80.34;96841.47;4934347;29;20507;-82
2021/12/25 02:26:26;;;;;;;1.42;1.33;;;;;;;-13.85;80.33;96832.41;4934427;29;20059;-81
2021/12/25 02:29:01;;;;;;;1.40;1.30;;;;;;;-13.84;80.16;96818.50;4913759;29;20055;-81
2021/12/25 02:31:29;;;;;;;1.10;1.10;;;;;;;-13.84;80.21;96813.31;4915873;29;20115;-81
2021/12/25 02:33:56;;;;;;;1.60;1.50;;;;;;;-13.84;80.23;96808.13;4914270;29;20068;-82
2021/12/25 02:36:23;;;;;;;1.38;1.27;;;;;;;-13.79;80.36;96815.47;4915562;29;20511;-83
2021/12/25 02:38:55;;;;;;;1.50;1.40;;;;;;;-13.77;80.32;96813.56;4924917;29;20056;-81
2021/12/25 02:41:23;;;;;;;1.40;1.30;;;;;;;-13.82;80.63;96779.44;4921615;29;20060;-82
2021/12/25 02:43:52;;;;;;;1.30;1.20;;;;;;;-13.77;80.43;96796.22;4914398;29;20131;-83
2021/12/25 02:46:31;;;;;;;1.00;1.00;;;;;;;-13.69;80.57;96769.53;4914062;29;20047;-82
2021/12/25 02:48:59;;;;;;;1.40;1.30;;;;;;;-13.68;80.48;96794.50;4915086;29;20140;-82
2021/12/25 02:51:28;;;;;;;1.20;1.15;;;;;;;-13.65;80.46;96796.78;4898388;29;20405;-82
2021/12/25 02:53:55;;;;;;;1.33;1.23;;;;;;;-13.65;80.41;96796.78;4898593;29;20099;-81
2021/12/25 02:56:23;;;;;;;1.33;1.23;;;;;;;-13.63;80.63;96794.88;4900876;29;20150;-82
2021/12/25 02:58:50;;;;;;;1.30;1.20;;;;;;;-13.59;80.38;96785.03;4933851;29;20055;-81
2021/12/25 03:01:21;;;;;;;1.30;1.20;;;;;;;-13.56;80.34;96782.94;4901592;29;20511;-82
2021/12/25 03:03:48;;;;;;;1.25;1.20;;;;;;;-13.56;80.19;96775.16;4916947;29;20068;-81
2021/12/25 03:06:15;;;;;;;1.30;1.20;;;;;;;-13.54;80.30;96769.84;4918797;29;20470;-81
2021/12/25 03:08:45;;;;;;;1.30;1.20;;;;;;;-13.47;80.52;96775.22;4920544;29;20103;-82
2021/12/25 03:11:14;;;;;;;1.40;1.30;;;;;;;-13.43;80.33;96773.97;4920319;29;20541;-81
2021/12/25 03:13:57;;;;;;;1.35;1.25;;;;;;;-13.44;80.14;96777.53;4937477;29;20134;-81
2021/12/25 03:16:28;;;;;;;1.60;1.50;;;;;;;-13.50;80.27;96757.38;4937631;29;20130;-82
2021/12/25 03:18:59;;;;;;;1.40;1.30;;;;;;;-13.51;80.39;96771.31;4920536;29;20124;-81
2021/12/25 03:21:26;;;;;;;1.40;1.30;;;;;;;-13.49;80.11;96749.44;4937565;29;20051;-82
2021/12/25 03:23:53;;;;;;;1.33;1.23;;;;;;;-13.45;80.15;96745.56;4923309;29;20058;-82
2021/12/25 03:26:21;;;;;;;1.40;1.30;;;;;;;-13.43;80.04;96754.03;4921861;29;20130;-82
2021/12/25 03:28:51;;;;;;;1.20;1.20;;;;;;;-13.44;80.00;96734.25;4939247;29;20089;-82
2021/12/25 03:31:22;;;;;;;1.40;1.30;;;;;;;-13.43;80.04;96733.28;4920884;29;20056;-82
2021/12/25 03:33:54;;;;;;;1.45;1.35;;;;;;;-13.39;80.22;96728.59;4920139;29;20110;-81
2021/12/25 03:36:22;;;;;;;1.40;1.30;;;;;;;-13.41;80.37;96727.94;4920820;29;20078;-81
2021/12/25 03:38:53;;;;;;;1.42;1.33;;;;;;;-13.38;80.50;96709.47;4937030;29;20426;-83
2021/12/25 03:41:20;;;;;;;1.40;1.30;;;;;;;-13.37;80.39;96721.47;4937724;29;20063;-82
2021/12/25 03:43:49;;;;;;;1.40;1.30;;;;;;;-13.35;80.67;96704.78;4920266;29;20070;-82
2021/12/25 03:46:18;;;;;;;1.50;1.40;;;;;;;-13.38;80.44;96710.28;4921182;29;20051;-82
2021/12/25 03:49:02;;;;;;;1.30;1.20;;;;;;;-13.37;80.59;96711.09;4937339;29;20052;-82
2021/12/25 04:00:07;;;;;;;1.33;1.23;;;;;;;-13.33;80.59;96682.09;4882557;29;20104;-81
2021/12/25 04:02:56;;;;;;;1.35;1.25;;;;;;;-13.32;80.57;96672.50;4896128;29;20560;-81
2021/12/25 04:05:37;;;;;;;1.45;1.35;;;;;;;-13.33;80.58;96670.91;4896763;29;20052;-82
2021/12/25 04:08:07;;;;;;;1.58;1.48;;;;;;;-13.33;80.68;96665.72;4897784;29;20097;-81
2021/12/25 04:10:38;;;;;;;1.40;1.30;;;;;;;-13.29;80.66;96682.63;4880991;29;20052;-81
2021/12/25 04:13:07;;;;;;;1.50;1.40;;;;;;;-13.27;80.81;96672.06;4901948;29;20151;-83
2021/12/25 04:15:35;;;;;;;1.40;1.30;;;;;;;-13.24;80.90;96664.78;4886263;29;20061;-81
2021/12/25 04:18:06;;;;;;;1.40;1.30;;;;;;;-13.26;80.81;96660.72;4874960;29;20453;-82
2021/12/25 04:20:34;;;;;;;1.40;1.30;;;;;;;-13.26;81.02;96656.31;4897076;29;20065;-80
2021/12/25 04:23:07;;;;;;;1.40;1.30;;;;;;;-13.24;80.98;96646.59;4887291;29;20520;-82
2021/12/25 04:25:36;;;;;;;1.50;1.40;;;;;;;-13.19;80.95;96636.56;4892609;29;20204;-81
2021/12/25 04:28:17;;;;;;;1.35;1.25;;;;;;;-13.13;81.01;96629.94;4893889;29;20052;-83
2021/12/25 05:04:42;;;;;;;1.38;1.27;;;;;;;-13.18;80.42;96599.25;4849631;29;20122;-82
2021/12/25 05:07:19;;;;;;;1.30;1.20;;;;;;;-13.16;80.56;96589.53;4841609;29;20156;-81
2021/12/25 05:09:48;;;;;;;1.13;1.13;;;;;;;-13.13;80.51;96591.81;4852550;29;20478;-82
2021/12/25 05:12:18;;;;;;;1.13;1.13;;;;;;;-13.08;80.63;96593.94;4833097;29;20514;-82
2021/12/25 05:14:45;;;;;;;1.40;1.30;;;;;;;-13.00;80.78;96587.97;4850827;29;20049;-82
2021/12/25 05:17:13;;;;;;;1.35;1.25;;;;;;;-13.04;80.74;96579.66;4855265;29;20117;-81
2021/12/25 05:19:41;;;;;;;1.30;1.20;;;;;;;-13.03;80.91;96575.31;4506668;29;10000620;-82
2021/12/25 05:22:09;;;;;;;1.00;1.00;;;;;;;-12.99;80.90;96582.59;4822479;29;20077;-82
2021/12/25 05:24:39;;;;;;;1.50;1.40;;;;;;;-12.97;80.86;96582.47;4832032;29;20168;-82
2021/12/25 05:27:09;;;;;;;1.30;1.20;;;;;;;-12.97;80.87;96577.25;4868789;29;20875;-84
2021/12/25 05:29:37;;;;;;;1.42;1.33;;;;;;;-12.96;81.32;96584.06;4905078;29;20056;-82
2021/12/25 05:32:08;;;;;;;1.30;1.20;;;;;;;-12.91;81.27;96574.03;4908620;29;20052;-81
2021/12/25 05:34:54;;;;;;;1.40;1.30;;;;;;;-12.90;81.00;96573.06;4927631;29;20462;-82
2021/12/25 05:37:29;;;;;;;1.38;1.27;;;;;;;-12.87;81.02;96562.38;4895784;29;20511;-81
2021/12/25 05:40:01;;;;;;;1.38;1.27;;;;;;;-12.82;81.25;96564.50;4920842;29;20087;-84
2021/12/25 05:42:32;;;;;;;1.27;1.20;;;;;;;-12.84;80.82;96556.84;4905458;29;20052;-84
2021/12/25 05:45:00;;;;;;;1.40;1.30;;;;;;;-12.82;80.98;96561.91;4894979;29;20051;-81
2021/12/25 05:47:47;;;;;;;1.30;1.20;;;;;;;-12.83;80.76;96557.69;4921336;29;20083;-80
2021/12/25 05:50:37;;;;;;;1.40;1.30;;;;;;;-12.83;80.79;96552.50;4855110;29;20118;-85
2021/12/25 05:53:19;;;;;;;1.33;1.23;;;;;;;-12.84;80.79;96535.25;4823522;29;20129;-83
2021/12/25 05:56:07;;;;;;;1.40;1.30;;;;;;;-12.81;80.89;96540.97;4852957;29;20057;-82
2021/12/25 05:59:03;;;;;;;1.42;1.33;;;;;;;-12.77;80.89;96546.66;4835343;29;20830;-84
2021/12/25 06:02:03;;;;;;;1.40;1.30;;;;;;;-12.81;80.78;96546.16;4834535;29;20073;-85
2021/12/25 06:04:32;;;;;;;1.33;1.23;;;;;;;-12.78;80.96;96540.66;4819740;29;20115;-83
2021/12/25 06:07:05;;;;;;;1.30;1.20;;;;;;;-12.71;80.91;96520.03;4828532;29;20121;-84
2021/12/25 06:09:32;;;;;;;1.35;1.25;;;;;;;-12.68;81.04;96523.13;4853807;29;20087;-80
2021/12/25 06:11:59;;;;;;;1.27;1.23;;;;;;;-12.67;80.99;96521.34;4838130;29;20061;-85
2021/12/25 06:14:27;;;;;;;1.30;1.20;;;;;;;-12.67;80.87;96516.94;4838311;29;20518;-84
2021/12/25 06:17:23;;;;;;;1.13;1.13;;;;;;;-12.64;81.07;96513.22;4836040;29;20170;-84
2021/12/25 06:19:55;;;;;;;1.23;1.20;;;;;;;-12.60;81.14;96521.53;4827274;29;20060;-83
2021/12/25 06:22:42;;;;;;;1.30;1.20;;;;;;;-12.52;81.09;96513.72;4861204;29;20660;-86
2021/12/25 06:25:20;;;;;;;1.33;1.23;;;;;;;-12.46;81.16;96503.47;4855523;29;20057;-86
2021/12/25 06:27:57;;;;;;;1.17;1.17;;;;;;;-12.45;80.96;96509.50;4881379;29;20064;-81
2021/12/25 06:30:51;;;;;;;1.40;1.30;;;;;;;-12.40;81.22;96503.81;4921692;29;20408;-85
2021/12/25 06:33:37;;;;;;;1.45;1.35;;;;;;;-12.36;81.04;96508.53;4919077;29;20055;-81
2021/12/25 06:36:21;;;;;;;1.17;1.15;;;;;;;-12.37;81.05;96506.09;4894787;29;20051;-83
2021/12/25 06:39:01;;;;;;;1.13;1.13;;;;;;;-12.28;80.79;96503.34;4894333;29;20099;-81
2021/12/25 06:41:34;;;;;;;1.33;1.23;;;;;;;-12.22;81.09;96507.88;4899724;29;20103;-83
2021/12/25 06:44:03;;;;;;;1.33;1.23;;;;;;;-12.14;81.09;96508.88;4897384;29;20056;-84
2021/12/25 06:46:42;;;;;;;1.33;1.23;;;;;;;-12.09;81.01;96509.19;4898740;29;20063;-82
2021/12/25 06:49:10;;;;;;;1.40;1.30;;;;;;;-12.18;80.94;96494.56;4898454;29;20040;-82
2021/12/25 06:51:56;;;;;;;1.27;1.20;;;;;;;-12.10;81.12;96502.34;4901001;29;20055;-83
2021/12/25 06:54:34;;;;;;;1.55;1.45;;;;;;;-12.03;81.04;96504.13;4884357;29;20695;-83
2021/12/25 06:57:20;;;;;;;1.13;1.13;;;;;;;-11.94;81.06;96491.13;4887882;29;20043;-83
2021/12/25 06:59:47;;;;;;;1.40;1.30;;;;;;;-11.89;80.86;96494.84;4897976;29;20491;-82
2021/12/25 07:02:15;;;;;;;1.50;1.40;;;;;;;-11.81;80.83;96492.19;4898181;29;20144;-83
2021/12/25 07:05:04;;;;;;;1.25;1.20;;;;;;;-11.84;80.85;96476.13;4914851;29;20500;-83
2021/12/25 07:07:52;;;;;;;1.33;1.23;;;;;;;-11.81;80.85;96484.41;4914899;29;20059;-83
2021/12/25 07:10:40;;;;;;;1.50;1.40;;;;;;;-11.78;80.74;96473.66;4861808;29;20553;-85
2021/12/25 07:13:29;;;;;;;1.30;1.20;;;;;;;-11.64;80.96;96476.56;4848980;29;20097;-82
2021/12/25 07:16:15;;;;;;;1.30;1.20;;;;;;;-11.57;80.75;96469.69;4869387;29;20057;-84
2021/12/25 07:19:15;;;;;;;1.25;1.20;;;;;;;-11.48;80.58;96476.50;4818601;29;20054;-87
2021/12/25 07:21:59;;;;;;;1.45;1.35;;;;;;;-11.44;80.66;96469.97;4835120;29;20061;-84
2021/12/25 07:25:00;;;;;;;1.33;1.23;;;;;;;-11.42;80.38;96470.63;4820059;29;20089;-86
2021/12/25 07:27:45;;;;;;;1.23;1.20;;;;;;;-11.37;80.48;96473.53;4839898;29;20065;-84
2021/12/25 07:30:13;;;;;;;1.00;1.00;;;;;;;-11.34;80.56;96475.00;4836184;29;20058;-81
2021/12/25 07:32:40;;;;;;;1.20;1.17;;;;;;;-11.29;80.59;96477.91;4836156;29;20061;-83
2021/12/25 07:35:08;;;;;;;1.33;1.23;;;;;;;-11.25;80.84;96467.94;4836129;29;20066;-82
2021/12/25 07:37:37;;;;;;;1.13;1.13;;;;;;;-11.22;80.88;96475.41;4836479;29;20473;-83
2021/12/25 07:40:06;;;;;;;1.30;1.20;;;;;;;-11.21;80.79;96464.84;4835996;29;20046;-81
2021/12/25 07:42:33;;;;;;;1.40;1.30;;;;;;;-11.21;80.49;96462.22;4836788;29;20117;-81
2021/12/25 07:45:27;;;;;;;1.50;1.40;;;;;;;-11.12;80.77;96470.81;4816523;29;20058;-81
2021/12/25 07:48:00;;;;;;;1.33;1.23;;;;;;;-11.05;80.81;96461.34;4830660;29;20084;-83
2021/12/25 07:50:54;;;;;;;1.40;1.30;;;;;;;-11.00;80.79;96456.41;4878917;29;20579;-86
2021/12/25 07:53:21;;;;;;;1.40;1.30;;;;;;;-10.93;80.64;96467.78;4892205;29;20111;-87
2021/12/25 07:55:49;;;;;;;1.50;1.40;;;;;;;-10.81;80.66;96472.59;4913639;29;20056;-84
2021/12/25 07:58:17;;;;;;;1.20;1.17;;;;;;;-10.70;80.59;96473.00;4923437;29;20044;-83
2021/12/25 08:00:45;;;;;;;1.13;1.13;;;;;;;-10.64;80.46;96457.66;4917353;29;20131;-84
2021/12/25 08:03:13;;;;;;;1.40;1.30;;;;;;;-10.62;80.20;96446.06;4916230;29;20064;-84
2021/12/25 08:05:41;;;;;;;1.40;1.30;;;;;;;-10.45;79.94;96457.19;4918114;29;20071;-82
2021/12/25 08:08:10;;;;;;;1.40;1.30;;;;;;;-10.28;79.81;96463.06;4941145;29;20084;-84
2021/12/25 08:10:39;;;;;;;1.38;1.27;;;;;;;-10.28;79.79;96456.09;4940845;29;20116;-84
2021/12/25 08:13:07;;;;;;;1.30;1.20;;;;;;;-10.23;79.71;96460.72;4940135;29;20063;-84
2021/12/25 08:15:35;;;;;;;1.30;1.20;;;;;;;-10.22;79.52;96453.72;4921740;29;20074;-84
2021/12/25 08:18:03;;;;;;;1.40;1.30;;;;;;;-10.19;79.65;96451.56;4921158;29;20099;-83
2021/12/25 08:20:34;;;;;;;1.00;1.00;;;;;;;-10.22;79.57;96451.13;4923193;29;20163;-85
2021/12/25 08:23:20;;;;;;;1.23;1.17;;;;;;;-10.15;79.77;96450.25;4922560;29;20055;-85
2021/12/25 08:26:06;;;;;;;1.35;1.25;;;;;;;-10.08;79.69;96456.34;4923572;29;20056;-84
2021/12/25 08:28:37;;;;;;;1.23;1.17;;;;;;;-10.01;79.49;96453.03;4930908;29;20439;-85
2021/12/25 08:31:24;;;;;;;1.33;1.23;;;;;;;-10.03;79.29;96451.41;4932038;29;20084;-84
2021/12/25 08:34:32;;;;;;;1.40;1.30;;;;;;;-9.97;79.40;96446.50;4921453;29;20191;-84
2021/12/25 08:37:09;;;;;;;1.35;1.25;;;;;;;-9.86;79.45;96464.31;4917614;29;20048;-83
2021/12/25 08:39:38;;;;;;;1.25;1.17;;;;;;;-9.76;79.20;96459.63;4917134;29;20060;-84
2021/12/25 08:42:09;;;;;;;1.10;1.10;;;;;;;-9.70;78.94;96458.09;4917168;29;20060;-84
2021/12/25 08:44:42;;;;;;;1.30;1.20;;;;;;;-9.71;78.63;96465.13;4917156;29;20060;-84
2021/12/25 08:47:12;;;;;;;1.38;1.27;;;;;;;-9.63;78.90;96456.41;4916593;29;20504;-84
2021/12/25 08:49:41;;;;;;;1.23;1.20;;;;;;;-9.55;78.43;96463.34;4899870;29;20135;-84
2021/12/25 08:52:14;;;;;;;1.00;1.00;;;;;;;-9.64;78.37;96455.59;4915735;29;20051;-85
2021/12/25 08:54:49;;;;;;;1.40;1.30;;;;;;;-9.74;78.75;96465.50;4916697;29;20146;-84
2021/12/25 08:57:19;;;;;;;0.98;0.98;;;;;;;-9.76;79.04;96467.47;4917692;29;20071;-83
2021/12/25 08:59:47;;;;;;;1.40;1.30;;;;;;;-9.70;79.09;96461.53;4919245;29;20135;-86
2021/12/25 09:02:16;;;;;;;1.30;1.20;;;;;;;-9.65;79.12;96459.19;4920020;29;20134;-84
2021/12/25 09:04:46;;;;;;;1.38;1.27;;;;;;;-9.71;79.20;96454.69;4919295;29;20060;-84
2021/12/25 09:07:14;;;;;;;1.25;1.20;;;;;;;-9.63;79.36;96456.41;4915460;29;20078;-85
2021/12/25 09:09:41;;;;;;;1.00;1.00;;;;;;;-9.54;79.46;96464.94;4899957;29;20083;-84
2021/12/25 09:12:13;;;;;;;1.35;1.25;;;;;;;-9.48;79.39;96462.44;4916102;29;20146;-84
2021/12/25 09:14:40;;;;;;;1.23;1.17;;;;;;;-9.36;79.26;96465.41;4916898;29;20068;-84
2021/12/25 09:17:08;;;;;;;1.50;1.40;;;;;;;-9.25;79.31;96459.72;4916747;29;20148;-84
2021/12/25 09:19:40;;;;;;;1.10;1.10;;;;;;;-9.17;78.76;96469.25;4916271;29;20048;-84
2021/12/25 09:22:10;;;;;;;1.02;1.02;;;;;;;-9.25;78.98;96471.97;4917059;29;20056;-84
2021/12/25 09:24:37;;;;;;;1.00;1.00;;;;;;;-9.31;78.92;96464.88;4916990;29;20427;-83
2021/12/25 09:27:06;;;;;;;1.00;1.00;;;;;;;-9.31;79.06;96477.94;4917121;29;20056;-84
2021/12/25 09:29:48;;;;;;;1.08;1.08;;;;;;;-9.40;79.04;96464.94;4906423;29;20139;-84
2021/12/25 09:32:15;;;;;;;1.00;1.00;;;;;;;-9.35;79.08;96469.63;4914808;29;20056;-83
2021/12/25 09:34:42;;;;;;;1.10;1.10;;;;;;;-9.36;79.09;96472.44;4915980;29;20056;-84
2021/12/25 09:37:10;;;;;;;1.40;1.30;;;;;;;-9.41;79.09;96480.81;4914568;29;20044;-83
2021/12/25 09:39:38;;;;;;;1.00;1.00;;;;;;;-9.40;79.14;96485.03;4916338;29;20140;-84
2021/12/25 09:42:06;;;;;;;1.10;1.10;;;;;;;-9.41;79.11;96488.66;4915439;29;20511;-84
2021/12/25 09:44:35;;;;;;;1.10;1.10;;;;;;;-9.33;79.03;96493.78;4915969;29;20067;-84
2021/12/25 09:47:07;;;;;;;1.20;1.20;;;;;;;-9.33;78.90;96509.44;4916231;29;20059;-84
2021/12/25 09:49:34;;;;;;;1.02;1.02;;;;;;;-9.31;78.99;96504.84;4901646;29;20044;-84
2021/12/25 09:52:03;;;;;;;1.23;1.20;;;;;;;-9.33;79.10;96506.84;4916470;29;20048;-83
2021/12/25 09:54:31;;;;;;;1.30;1.20;;;;;;;-9.31;79.05;96507.47;4914419;29;20060;-83
2021/12/25 09:56:58;;;;;;;1.08;1.08;;;;;;;-9.22;79.03;96510.78;4916085;29;20424;-83
2021/12/25 09:59:25;;;;;;;1.33;1.23;;;;;;;-9.19;78.79;96511.25;4915650;29;20138;-84
2021/12/25 10:01:55;;;;;;;1.00;1.00;;;;;;;-9.08;78.67;96517.00;4914524;29;20540;-84
2021/12/25 10:04:39;;;;;;;1.38;1.27;;;;;;;-8.97;78.33;96534.84;4915983;29;20086;-83
2021/12/25 10:07:24;;;;;;;1.17;1.17;;;;;;;-8.97;78.47;96517.34;4918100;29;20083;-85
2021/12/25 10:10:02;;;;;;;1.30;1.20;;;;;;;-9.01;77.87;96512.69;4918753;29;20052;-85
2021/12/25 10:12:36;;;;;;;1.00;1.00;;;;;;;-9.05;77.63;96512.22;4915531;29;20550;-83
2021/12/25 10:15:10;;;;;;;1.35;1.25;;;;;;;-9.13;77.38;96524.59;4915320;29;20048;-83
2021/12/25 10:17:52;;;;;;;1.10;1.10;;;;;;;-9.10;77.77;96545.13;4915852;29;20056;-84
2021/12/25 10:20:32;;;;;;;1.40;1.30;;;;;;;-9.03;76.46;96553.88;4915053;29;20486;-84
2021/12/25 10:23:15;;;;;;;1.40;1.30;;;;;;;-9.07;76.29;96558.63;4915481;29;20052;-83
2021/12/25 10:25:50;;;;;;;1.10;1.10;;;;;;;-9.10;76.32;96573.88;4914304;29;20056;-83
2021/12/25 10:28:20;;;;;;;1.30;1.20;;;;;;;-9.11;76.63;96580.91;4914367;29;20052;-83
2021/12/25 10:30:55;;;;;;;1.30;1.20;;;;;;;-9.11;76.54;96590.50;4914246;29;20127;-83
2021/12/25 10:33:31;;;;;;;1.10;1.10;;;;;;;-9.05;76.29;96579.38;4914179;29;20056;-84
2021/12/25 10:36:07;;;;;;;1.35;1.25;;;;;;;-9.06;76.19;96568.09;4914875;29;20056;-84
2021/12/25 10:38:35;;;;;;;1.00;1.00;;;;;;;-8.92;75.50;96587.38;4921108;29;20428;-85
2021/12/25 10:41:20;;;;;;;1.00;1.00;;;;;;;-8.89;74.52;96579.16;4913676;29;20059;-84
2021/12/25 10:43:48;;;;;;;;;;;;;;;-8.85;73.28;96583.03;4914456;29;20067;-84
2021/12/25 10:46:16;;;;;;;1.50;1.40;;;;;;;-8.84;73.22;96602.16;4898152;29;20310;-83
2021/12/25 10:48:43;;;;;;;1.40;1.30;;;;;;;-8.78;73.48;96611.91;4914917;29;20112;-84
2021/12/25 10:51:30;;;;;;;1.00;1.00;;;;;;;-8.79;72.81;96616.28;4914716;29;20048;-86
2021/12/25 10:54:01;;;;;;;1.35;1.25;;;;;;;-8.77;72.75;96611.69;4912858;29;20060;-85
2021/12/25 10:56:37;;;;;;;1.30;1.20;;;;;;;-8.54;72.45;96616.00;4914654;29;20151;-84
2021/12/25 10:59:08;;;;;;;1.40;1.30;;;;;;;-8.34;71.84;96624.88;4913179;29;20048;-83
2021/12/25 11:01:41;;;;;;;1.55;1.45;;;;;;;-8.02;71.41;96622.81;4913361;29;20108;-84
2021/12/25 11:04:32;;;;;;;1.60;1.50;;;;;;;-7.18;68.73;96611.66;4914521;29;20088;-84
2021/12/25 11:07:11;;;;;;;1.58;1.48;;;;;;;-6.44;66.35;96626.00;4897563;29;20057;-84
2021/12/25 11:09:39;;;;;;;1.00;1.00;;;;;;;-6.73;65.43;96632.28;4914940;29;20059;-84
2021/12/25 11:12:21;;;;;;;0.88;0.88;;;;;;;-8.03;68.40;96646.56;4913271;29;20511;-84
2021/12/25 11:14:51;;;;;;;1.02;1.02;;;;;;;-8.47;70.42;96624.75;4914011;29;20060;-84
2021/12/25 11:17:34;;;;;;;1.33;1.23;;;;;;;-8.62;71.21;96643.06;4915032;29;20063;-84
2021/12/25 11:20:05;;;;;;;1.38;1.27;;;;;;;-8.43;70.59;96646.97;4914761;29;20076;-84
2021/12/25 11:22:55;;;;;;;1.27;1.20;;;;;;;-8.13;69.58;96652.09;4914805;29;20480;-84
2021/12/25 11:25:34;;;;;;;1.02;1.02;;;;;;;-8.22;69.90;96658.44;4913106;29;20423;-84
2021/12/25 11:28:06;;;;;;;1.10;1.10;;;;;;;-8.54;71.52;96684.03;4916951;29;20052;-84
2021/12/25 11:30:42;;;;;;;1.40;1.30;;;;;;;-8.85;72.84;96674.56;4916665;29;20056;-83
2021/12/25 11:33:10;;;;;;;1.30;1.20;;;;;;;-8.89;73.46;96682.91;4916329;29;20059;-85
2021/12/25 11:35:47;;;;;;;1.20;1.17;;;;;;;-9.07;73.57;96689.28;4916761;29;20052;-84
2021/12/25 11:38:14;;;;;;;1.40;1.30;;;;;;;-9.36;73.76;96679.59;4916606;29;20104;-83
2021/12/25 11:40:51;;;;;;;0.90;0.90;;;;;;;-9.43;72.75;96702.19;4917829;29;20052;-84
2021/12/25 11:43:40;;;;;;;0.80;0.80;;;;;;;-9.50;72.95;96712.50;4901874;29;20052;-85
2021/12/25 11:46:11;;;;;;;1.10;1.10;;;;;;;-9.62;72.42;96706.88;4901355;29;20055;-84
2021/12/25 11:48:42;;;;;;;1.30;1.20;;;;;;;-9.63;71.81;96722.72;4916549;29;20051;-85
2021/12/25 11:51:30;;;;;;;1.02;1.02;;;;;;;-9.68;71.54;96715.41;4917983;29;20527;-84
2021/12/25 11:56:36;;;;;;;1.10;1.10;;;;;;;-9.69;71.99;96739.09;4917699;29;20078;-85
2021/12/25 11:59:16;;;;;;;1.20;1.17;;;;;;;-9.55;71.76;96742.75;4915885;29;20098;-84
2021/12/25 12:01:49;;;;;;;0.90;0.90;;;;;;;-9.44;71.54;96748.38;4917427;29;20119;-85
2021/12/25 12:04:21;;;;;;;1.30;1.20;;;;;;;-9.37;71.07;96764.16;4916060;29;20055;-84
2021/12/25 12:06:51;;;;;;;1.10;1.10;;;;;;;-9.43;71.42;96752.63;4917716;29;20059;-84
2021/12/25 12:09:52;;;;;;;1.35;1.25;;;;;;;-9.44;72.04;96768.47;4916311;29;20068;-84
2021/12/25 12:13:34;;;;;;;1.10;1.10;;;;;;;-9.32;71.79;96769.66;4901144;29;20404;-84
2021/12/25 12:16:40;;;;;;;1.30;1.20;;;;;;;-9.46;72.30;96786.13;4902426;29;20085;-84
2021/12/25 12:19:30;;;;;;;1.23;1.15;;;;;;;-9.52;72.98;96787.63;4916850;29;20048;-84
2021/12/25 12:21:59;;;;;;;1.15;1.10;;;;;;;-9.50;73.48;96792.66;4918649;29;20078;-86
2021/12/25 12:27:03;;;;;;;1.40;1.30;;;;;;;-9.50;73.96;96800.50;4937587;29;20039;-87
2021/12/25 12:29:46;;;;;;;1.45;1.35;;;;;;;-9.49;74.00;96828.25;4931314;29;20139;-87
2021/12/25 12:32:18;;;;;;;1.00;1.00;;;;;;;-9.56;73.40;96829.91;4936272;29;20110;-85
2021/12/25 12:34:56;;;;;;;1.45;1.35;;;;;;;-9.73;74.00;96827.38;4920165;29;20210;-83
2021/12/25 12:37:31;;;;;;;1.20;1.20;;;;;;;-9.76;73.72;96827.72;4921341;29;20048;-85
2021/12/25 12:40:02;;;;;;;;;;;;;;;-9.93;73.90;96823.53;4857384;29;20048;-83
2021/12/25 12:42:46;;;;;;;1.40;1.30;;;;;;;-10.03;73.86;96834.97;4909871;29;19974;-84
2021/12/25 12:45:21;;;;;;;1.10;1.10;;;;;;;-10.10;72.94;96823.59;4899208;29;20117;-84
2021/12/25 12:48:09;;;;;;;1.08;1.08;;;;;;;-10.14;72.54;96843.16;4918034;29;20056;-83
2021/12/25 12:50:38;;;;;;;1.40;1.30;;;;;;;-10.15;72.38;96864.19;4898380;29;20500;-83
2021/12/25 12:53:11;;;;;;;1.30;1.20;;;;;;;-10.03;71.52;96875.91;4914543;29;20056;-83
2021/12/25 12:55:42;;;;;;;1.30;1.20;;;;;;;-9.98;71.18;96884.06;4893098;29;20055;-84
2021/12/25 12:58:16;;;;;;;1.15;1.13;;;;;;;-10.03;71.22;96874.13;4911870;29;20068;-82
2021/12/25 13:00:51;;;;;;;0.95;0.95;;;;;;;-10.00;71.39;96874.78;4905378;29;20058;-84
2021/12/25 13:03:18;;;;;;;;;;;;;;;-10.11;71.59;96895.00;4897736;29;20463;-84
2021/12/25 13:05:54;;;;;;;1.30;1.20;;;;;;;-10.26;72.06;96920.97;4896804;29;19928;-83
2021/12/25 13:08:25;;;;;;;1.40;1.30;;;;;;;-10.24;72.07;96907.75;4897252;29;20053;-84
2021/12/25 13:11:07;;;;;;;1.42;1.33;;;;;;;-10.40;72.24;96915.66;4869454;29;20044;-84
2021/12/25 13:13:39;;;;;;;1.15;1.15;;;;;;;-10.45;71.90;96913.53;4878402;29;20052;-84
2021/12/25 13:16:12;;;;;;;1.38;1.27;;;;;;;-10.53;72.27;96929.16;4897774;29;20457;-85
2021/12/25 13:18:41;;;;;;;1.33;1.23;;;;;;;-10.65;72.11;96931.28;4880509;29;20140;-85
2021/12/25 13:21:17;;;;;;;1.13;1.13;;;;;;;-10.81;72.53;96952.94;4876398;29;20049;-82
2021/12/25 13:23:53;;;;;;;1.10;1.10;;;;;;;-10.88;72.71;96944.13;4890127;29;20501;-83